sensor_id;sensor_type;location;lat;lon;timestamp;P1;durP1;ratioP1;P2;durP2;ratioP2
45366;SDS011;31100;55.848;37.636;2023-05-23T00:01:33;17.52;;;11.50;;
45366;SDS011;31100;55.848;37.636;2023-05-23T00:04:04;13.27;;;10.95;;
45366;SDS011;31100;55.848;37.636;2023-05-23T00:06:30;14.73;;;11.57;;
45366;SDS011;31100;55.848;37.636;2023-05-23T00:08:56;15.88;;;11.23;;
45366;SDS011;31100;55.848;37.636;2023-05-23T00:11:22;14.48;;;10.57;;
45366;SDS011;31100;55.848;37.636;2023-05-23T00:13:51;17.27;;;11.35;;
45366;SDS011;31100;55.848;37.636;2023-05-23T00:16:17;16.67;;;11.48;;
45366;SDS011;31100;55.848;37.636;2023-05-23T00:18:43;19.75;;;11.30;;
45366;SDS011;31100;55.848;37.636;2023-05-23T00:21:09;13.75;;;10.80;;
45366;SDS011;31100;55.848;37.636;2023-05-23T00:23:35;16.23;;;11.13;;
45366;SDS011;31100;55.848;37.636;2023-05-23T00:26:02;18.58;;;11.60;;
45366;SDS011;31100;55.848;37.636;2023-05-23T00:28:27;14.95;;;11.05;;
45366;SDS011;31100;55.848;37.636;2023-05-23T00:30:53;14.45;;;10.82;;
45366;SDS011;31100;55.848;37.636;2023-05-23T00:33:18;17.00;;;10.65;;
45366;SDS011;31100;55.848;37.636;2023-05-23T00:35:46;13.63;;;10.82;;
45366;SDS011;31100;55.848;37.636;2023-05-23T00:38:14;14.57;;;10.77;;
45366;SDS011;31100;55.848;37.636;2023-05-23T00:40:40;15.95;;;11.40;;
45366;SDS011;31100;55.848;37.636;2023-05-23T00:43:05;15.55;;;11.20;;
45366;SDS011;31100;55.848;37.636;2023-05-23T00:45:32;19.38;;;11.45;;
45366;SDS011;31100;55.848;37.636;2023-05-23T00:47:57;14.63;;;11.32;;
45366;SDS011;31100;55.848;37.636;2023-05-23T00:50:24;20.30;;;13.15;;
45366;SDS011;31100;55.848;37.636;2023-05-23T00:52:53;17.75;;;11.80;;
45366;SDS011;31100;55.848;37.636;2023-05-23T00:55:19;18.52;;;12.13;;
45366;SDS011;31100;55.848;37.636;2023-05-23T00:57:45;16.85;;;11.07;;
45366;SDS011;31100;55.848;37.636;2023-05-23T01:00:11;16.77;;;11.70;;
45366;SDS011;31100;55.848;37.636;2023-05-23T01:02:38;14.95;;;10.48;;
45366;SDS011;31100;55.848;37.636;2023-05-23T01:05:15;17.80;;;11.07;;
45366;SDS011;31100;55.848;37.636;2023-05-23T01:07:44;15.65;;;10.85;;
45366;SDS011;31100;55.848;37.636;2023-05-23T01:10:11;16.13;;;12.10;;
45366;SDS011;31100;55.848;37.636;2023-05-23T01:12:40;15.32;;;11.50;;
45366;SDS011;31100;55.848;37.636;2023-05-23T01:15:49;15.13;;;11.25;;
45366;SDS011;31100;55.848;37.636;2023-05-23T01:18:15;17.75;;;11.65;;
45366;SDS011;31100;55.848;37.636;2023-05-23T01:20:54;17.05;;;10.85;;
45366;SDS011;31100;55.848;37.636;2023-05-23T01:29:00;15.43;;;11.38;;
45366;SDS011;31100;55.848;37.636;2023-05-23T01:31:34;18.85;;;11.43;;
45366;SDS011;31100;55.848;37.636;2023-05-23T01:34:01;14.43;;;10.23;;
45366;SDS011;31100;55.848;37.636;2023-05-23T01:36:28;14.75;;;10.25;;
45366;SDS011;31100;55.848;37.636;2023-05-23T01:38:55;11.95;;;9.80;;
45366;SDS011;31100;55.848;37.636;2023-05-23T01:41:21;14.20;;;9.70;;
45366;SDS011;31100;55.848;37.636;2023-05-23T01:43:46;15.38;;;10.73;;
45366;SDS011;31100;55.848;37.636;2023-05-23T01:46:12;13.23;;;9.95;;
45366;SDS011;31100;55.848;37.636;2023-05-23T01:48:38;13.68;;;9.95;;
45366;SDS011;31100;55.848;37.636;2023-05-23T01:51:04;15.10;;;10.20;;
45366;SDS011;31100;55.848;37.636;2023-05-23T01:53:31;16.30;;;9.90;;
45366;SDS011;31100;55.848;37.636;2023-05-23T01:55:56;13.00;;;9.85;;
45366;SDS011;31100;55.848;37.636;2023-05-23T01:58:22;14.77;;;10.15;;
45366;SDS011;31100;55.848;37.636;2023-05-23T02:00:48;12.65;;;9.18;;
45366;SDS011;31100;55.848;37.636;2023-05-23T02:03:13;13.90;;;10.05;;
45366;SDS011;31100;55.848;37.636;2023-05-23T02:05:39;17.95;;;9.82;;
45366;SDS011;31100;55.848;37.636;2023-05-23T02:08:05;13.15;;;9.55;;
45366;SDS011;31100;55.848;37.636;2023-05-23T02:10:30;11.32;;;9.68;;
45366;SDS011;31100;55.848;37.636;2023-05-23T02:12:56;12.35;;;10.07;;
45366;SDS011;31100;55.848;37.636;2023-05-23T02:15:21;14.30;;;10.10;;
45366;SDS011;31100;55.848;37.636;2023-05-23T02:17:47;17.90;;;10.05;;
45366;SDS011;31100;55.848;37.636;2023-05-23T02:20:12;14.70;;;9.75;;
45366;SDS011;31100;55.848;37.636;2023-05-23T02:22:38;19.45;;;9.70;;
45366;SDS011;31100;55.848;37.636;2023-05-23T02:25:04;12.98;;;9.15;;
45366;SDS011;31100;55.848;37.636;2023-05-23T02:27:30;16.85;;;9.18;;
45366;SDS011;31100;55.848;37.636;2023-05-23T02:29:55;12.00;;;9.05;;
45366;SDS011;31100;55.848;37.636;2023-05-23T02:32:21;13.98;;;8.88;;
45366;SDS011;31100;55.848;37.636;2023-05-23T02:34:46;13.75;;;8.48;;
45366;SDS011;31100;55.848;37.636;2023-05-23T02:37:14;14.20;;;8.35;;
45366;SDS011;31100;55.848;37.636;2023-05-23T02:39:40;13.43;;;8.73;;
45366;SDS011;31100;55.848;37.636;2023-05-23T02:42:06;19.73;;;9.32;;
45366;SDS011;31100;55.848;37.636;2023-05-23T02:44:32;12.32;;;8.43;;
45366;SDS011;31100;55.848;37.636;2023-05-23T02:46:57;9.35;;;8.23;;
45366;SDS011;31100;55.848;37.636;2023-05-23T02:49:23;12.50;;;8.77;;
45366;SDS011;31100;55.848;37.636;2023-05-23T02:51:48;14.48;;;8.73;;
45366;SDS011;31100;55.848;37.636;2023-05-23T02:54:14;12.80;;;8.20;;
45366;SDS011;31100;55.848;37.636;2023-05-23T02:56:40;12.20;;;7.47;;
45366;SDS011;31100;55.848;37.636;2023-05-23T02:59:05;12.57;;;8.52;;
45366;SDS011;31100;55.848;37.636;2023-05-23T03:01:31;13.75;;;8.25;;
45366;SDS011;31100;55.848;37.636;2023-05-23T03:03:56;13.32;;;8.07;;
45366;SDS011;31100;55.848;37.636;2023-05-23T03:06:22;12.90;;;7.70;;
45366;SDS011;31100;55.848;37.636;2023-05-23T03:08:47;13.90;;;8.05;;
45366;SDS011;31100;55.848;37.636;2023-05-23T03:11:13;11.23;;;7.80;;
45366;SDS011;31100;55.848;37.636;2023-05-23T03:13:39;12.52;;;8.00;;
45366;SDS011;31100;55.848;37.636;2023-05-23T03:16:04;15.77;;;8.90;;
45366;SDS011;31100;55.848;37.636;2023-05-23T03:18:30;13.00;;;8.88;;
45366;SDS011;31100;55.848;37.636;2023-05-23T03:20:55;11.52;;;8.00;;
45366;SDS011;31100;55.848;37.636;2023-05-23T03:23:21;12.30;;;7.90;;
45366;SDS011;31100;55.848;37.636;2023-05-23T03:25:46;14.52;;;8.48;;
45366;SDS011;31100;55.848;37.636;2023-05-23T03:28:12;12.05;;;8.02;;
45366;SDS011;31100;55.848;37.636;2023-05-23T03:30:38;12.55;;;8.18;;
45366;SDS011;31100;55.848;37.636;2023-05-23T03:33:03;10.05;;;8.35;;
45366;SDS011;31100;55.848;37.636;2023-05-23T03:35:30;13.43;;;8.45;;
45366;SDS011;31100;55.848;37.636;2023-05-23T03:37:56;16.02;;;8.40;;
45366;SDS011;31100;55.848;37.636;2023-05-23T03:40:21;16.38;;;8.82;;
45366;SDS011;31100;55.848;37.636;2023-05-23T03:42:47;15.52;;;8.52;;
45366;SDS011;31100;55.848;37.636;2023-05-23T03:45:13;10.88;;;8.07;;
45366;SDS011;31100;55.848;37.636;2023-05-23T03:47:39;15.13;;;8.20;;
45366;SDS011;31100;55.848;37.636;2023-05-23T03:50:05;13.60;;;8.77;;
45366;SDS011;31100;55.848;37.636;2023-05-23T03:52:30;11.02;;;8.45;;
45366;SDS011;31100;55.848;37.636;2023-05-23T03:54:56;14.35;;;9.13;;
45366;SDS011;31100;55.848;37.636;2023-05-23T03:57:21;18.70;;;10.57;;
45366;SDS011;31100;55.848;37.636;2023-05-23T03:59:47;15.40;;;9.48;;
45366;SDS011;31100;55.848;37.636;2023-05-23T04:02:12;13.95;;;8.85;;
45366;SDS011;31100;55.848;37.636;2023-05-23T04:04:38;12.70;;;8.15;;
45366;SDS011;31100;55.848;37.636;2023-05-23T04:07:04;14.02;;;9.25;;
45366;SDS011;31100;55.848;37.636;2023-05-23T04:09:29;16.20;;;8.88;;
45366;SDS011;31100;55.848;37.636;2023-05-23T04:11:56;13.35;;;8.75;;
45366;SDS011;31100;55.848;37.636;2023-05-23T04:14:22;14.32;;;9.50;;
45366;SDS011;31100;55.848;37.636;2023-05-23T04:16:48;13.70;;;9.50;;
45366;SDS011;31100;55.848;37.636;2023-05-23T04:19:13;16.30;;;9.63;;
45366;SDS011;31100;55.848;37.636;2023-05-23T04:21:40;17.30;;;9.63;;
45366;SDS011;31100;55.848;37.636;2023-05-23T04:24:05;14.70;;;9.70;;
45366;SDS011;31100;55.848;37.636;2023-05-23T04:26:32;15.05;;;9.40;;
45366;SDS011;31100;55.848;37.636;2023-05-23T04:28:57;15.27;;;9.85;;
45366;SDS011;31100;55.848;37.636;2023-05-23T04:31:23;18.73;;;9.25;;
45366;SDS011;31100;55.848;37.636;2023-05-23T04:33:49;16.85;;;9.52;;
45366;SDS011;31100;55.848;37.636;2023-05-23T04:36:14;18.35;;;9.00;;
45366;SDS011;31100;55.848;37.636;2023-05-23T04:38:40;13.55;;;8.82;;
45366;SDS011;31100;55.848;37.636;2023-05-23T04:41:06;17.13;;;10.27;;
45366;SDS011;31100;55.848;37.636;2023-05-23T04:43:34;19.35;;;10.25;;
45366;SDS011;31100;55.848;37.636;2023-05-23T04:46:01;17.20;;;10.35;;
45366;SDS011;31100;55.848;37.636;2023-05-23T04:48:27;17.13;;;9.77;;
45366;SDS011;31100;55.848;37.636;2023-05-23T04:50:53;19.83;;;10.75;;
45366;SDS011;31100;55.848;37.636;2023-05-23T04:53:20;22.88;;;11.07;;
45366;SDS011;31100;55.848;37.636;2023-05-23T04:55:46;19.58;;;10.82;;
45366;SDS011;31100;55.848;37.636;2023-05-23T04:58:12;23.67;;;11.32;;
45366;SDS011;31100;55.848;37.636;2023-05-23T05:00:37;29.33;;;12.80;;
45366;SDS011;31100;55.848;37.636;2023-05-23T05:03:03;27.50;;;12.05;;
45366;SDS011;31100;55.848;37.636;2023-05-23T05:05:29;32.25;;;12.77;;
45366;SDS011;31100;55.848;37.636;2023-05-23T05:07:54;24.98;;;11.27;;
45366;SDS011;31100;55.848;37.636;2023-05-23T05:10:20;22.48;;;9.98;;
45366;SDS011;31100;55.848;37.636;2023-05-23T05:12:45;22.85;;;10.48;;
45366;SDS011;31100;55.848;37.636;2023-05-23T05:15:13;18.27;;;9.73;;
45366;SDS011;31100;55.848;37.636;2023-05-23T05:17:42;18.05;;;10.68;;
45366;SDS011;31100;55.848;37.636;2023-05-23T05:20:08;15.85;;;10.10;;
45366;SDS011;31100;55.848;37.636;2023-05-23T05:22:38;17.45;;;10.15;;
45366;SDS011;31100;55.848;37.636;2023-05-23T05:25:07;15.32;;;9.73;;
45366;SDS011;31100;55.848;37.636;2023-05-23T05:27:33;17.02;;;9.20;;
45366;SDS011;31100;55.848;37.636;2023-05-23T05:29:58;16.67;;;9.35;;
45366;SDS011;31100;55.848;37.636;2023-05-23T05:32:29;16.10;;;9.38;;
45366;SDS011;31100;55.848;37.636;2023-05-23T05:35:00;17.85;;;9.32;;
45366;SDS011;31100;55.848;37.636;2023-05-23T05:37:27;12.88;;;8.25;;
45366;SDS011;31100;55.848;37.636;2023-05-23T05:39:53;17.73;;;9.05;;
45366;SDS011;31100;55.848;37.636;2023-05-23T05:42:19;14.65;;;8.40;;
45366;SDS011;31100;55.848;37.636;2023-05-23T05:44:46;17.23;;;8.77;;
45366;SDS011;31100;55.848;37.636;2023-05-23T05:47:12;19.00;;;9.02;;
45366;SDS011;31100;55.848;37.636;2023-05-23T05:49:37;14.52;;;8.60;;
45366;SDS011;31100;55.848;37.636;2023-05-23T05:52:03;11.45;;;7.63;;
45366;SDS011;31100;55.848;37.636;2023-05-23T05:54:31;13.15;;;8.40;;
45366;SDS011;31100;55.848;37.636;2023-05-23T05:56:56;13.68;;;8.43;;
45366;SDS011;31100;55.848;37.636;2023-05-23T05:59:22;14.98;;;8.05;;
45366;SDS011;31100;55.848;37.636;2023-05-23T06:01:47;14.20;;;7.80;;
45366;SDS011;31100;55.848;37.636;2023-05-23T06:04:15;12.95;;;7.72;;
45366;SDS011;31100;55.848;37.636;2023-05-23T06:06:41;12.65;;;7.43;;
45366;SDS011;31100;55.848;37.636;2023-05-23T06:09:09;11.90;;;7.82;;
45366;SDS011;31100;55.848;37.636;2023-05-23T06:11:35;15.18;;;8.77;;
45366;SDS011;31100;55.848;37.636;2023-05-23T06:14:04;12.57;;;8.50;;
45366;SDS011;31100;55.848;37.636;2023-05-23T06:16:30;14.10;;;7.80;;
45366;SDS011;31100;55.848;37.636;2023-05-23T06:18:56;12.10;;;7.07;;
45366;SDS011;31100;55.848;37.636;2023-05-23T06:21:21;14.02;;;7.60;;
45366;SDS011;31100;55.848;37.636;2023-05-23T06:23:47;13.75;;;6.88;;
45366;SDS011;31100;55.848;37.636;2023-05-23T06:26:12;13.40;;;7.57;;
45366;SDS011;31100;55.848;37.636;2023-05-23T06:28:38;13.63;;;7.07;;
45366;SDS011;31100;55.848;37.636;2023-05-23T06:31:04;12.40;;;7.53;;
45366;SDS011;31100;55.848;37.636;2023-05-23T06:33:29;12.55;;;6.47;;
45366;SDS011;31100;55.848;37.636;2023-05-23T06:35:56;11.18;;;6.95;;
45366;SDS011;31100;55.848;37.636;2023-05-23T06:38:21;14.95;;;6.85;;
45366;SDS011;31100;55.848;37.636;2023-05-23T06:40:47;9.93;;;6.00;;
45366;SDS011;31100;55.848;37.636;2023-05-23T06:43:12;9.73;;;5.90;;
45366;SDS011;31100;55.848;37.636;2023-05-23T06:45:38;10.82;;;5.80;;
45366;SDS011;31100;55.848;37.636;2023-05-23T06:48:04;11.75;;;6.13;;
45366;SDS011;31100;55.848;37.636;2023-05-23T06:50:29;14.48;;;5.65;;
45366;SDS011;31100;55.848;37.636;2023-05-23T06:52:55;10.90;;;6.10;;
45366;SDS011;31100;55.848;37.636;2023-05-23T06:55:21;13.10;;;5.72;;
45366;SDS011;31100;55.848;37.636;2023-05-23T06:57:47;12.57;;;6.43;;
45366;SDS011;31100;55.848;37.636;2023-05-23T07:00:16;9.90;;;4.97;;
45366;SDS011;31100;55.848;37.636;2023-05-23T07:02:42;11.57;;;4.75;;
45366;SDS011;31100;55.848;37.636;2023-05-23T07:05:09;9.57;;;4.43;;
45366;SDS011;31100;55.848;37.636;2023-05-23T07:07:35;9.40;;;5.22;;
45366;SDS011;31100;55.848;37.636;2023-05-23T07:10:00;10.75;;;5.65;;
45366;SDS011;31100;55.848;37.636;2023-05-23T07:12:26;7.47;;;4.90;;
45366;SDS011;31100;55.848;37.636;2023-05-23T07:14:51;12.10;;;5.13;;
45366;SDS011;31100;55.848;37.636;2023-05-23T07:17:17;11.00;;;4.82;;
45366;SDS011;31100;55.848;37.636;2023-05-23T07:19:42;9.18;;;3.90;;
45366;SDS011;31100;55.848;37.636;2023-05-23T07:22:08;11.20;;;5.00;;
45366;SDS011;31100;55.848;37.636;2023-05-23T07:24:33;9.23;;;5.18;;
45366;SDS011;31100;55.848;37.636;2023-05-23T07:26:59;10.60;;;4.72;;
45366;SDS011;31100;55.848;37.636;2023-05-23T07:29:24;8.68;;;4.35;;
45366;SDS011;31100;55.848;37.636;2023-05-23T07:31:50;7.88;;;4.70;;
45366;SDS011;31100;55.848;37.636;2023-05-23T07:34:18;8.70;;;4.18;;
45366;SDS011;31100;55.848;37.636;2023-05-23T07:36:43;12.45;;;4.47;;
45366;SDS011;31100;55.848;37.636;2023-05-23T07:39:09;8.02;;;3.70;;
45366;SDS011;31100;55.848;37.636;2023-05-23T07:41:35;8.18;;;3.70;;
45366;SDS011;31100;55.848;37.636;2023-05-23T07:44:00;8.13;;;4.03;;
45366;SDS011;31100;55.848;37.636;2023-05-23T07:46:26;8.93;;;4.20;;
45366;SDS011;31100;55.848;37.636;2023-05-23T07:48:54;9.88;;;4.05;;
45366;SDS011;31100;55.848;37.636;2023-05-23T07:51:20;10.90;;;4.50;;
45366;SDS011;31100;55.848;37.636;2023-05-23T07:53:46;9.00;;;4.65;;
45366;SDS011;31100;55.848;37.636;2023-05-23T07:56:11;11.45;;;4.30;;
45366;SDS011;31100;55.848;37.636;2023-05-23T07:58:37;9.85;;;4.55;;
45366;SDS011;31100;55.848;37.636;2023-05-23T08:01:02;9.43;;;4.72;;
45366;SDS011;31100;55.848;37.636;2023-05-23T08:03:28;10.80;;;5.18;;
45366;SDS011;31100;55.848;37.636;2023-05-23T08:05:53;9.13;;;4.25;;
45366;SDS011;31100;55.848;37.636;2023-05-23T08:08:19;11.23;;;5.20;;
45366;SDS011;31100;55.848;37.636;2023-05-23T08:10:44;7.65;;;4.10;;
45366;SDS011;31100;55.848;37.636;2023-05-23T08:13:11;10.60;;;5.07;;
45366;SDS011;31100;55.848;37.636;2023-05-23T08:15:37;10.77;;;4.43;;
45366;SDS011;31100;55.848;37.636;2023-05-23T08:18:03;8.00;;;4.32;;
45366;SDS011;31100;55.848;37.636;2023-05-23T08:20:28;10.13;;;4.20;;
45366;SDS011;31100;55.848;37.636;2023-05-23T08:22:57;9.48;;;4.63;;
45366;SDS011;31100;55.848;37.636;2023-05-23T08:25:26;9.35;;;4.53;;
45366;SDS011;31100;55.848;37.636;2023-05-23T08:27:58;8.63;;;5.20;;
45366;SDS011;31100;55.848;37.636;2023-05-23T08:30:24;7.45;;;4.70;;
45366;SDS011;31100;55.848;37.636;2023-05-23T08:32:54;6.65;;;4.45;;
45366;SDS011;31100;55.848;37.636;2023-05-23T08:35:20;6.75;;;3.88;;
45366;SDS011;31100;55.848;37.636;2023-05-23T08:37:47;9.10;;;3.97;;
45366;SDS011;31100;55.848;37.636;2023-05-23T08:40:22;8.02;;;3.78;;
45366;SDS011;31100;55.848;37.636;2023-05-23T08:42:49;11.35;;;4.25;;
45366;SDS011;31100;55.848;37.636;2023-05-23T08:45:15;9.15;;;3.78;;
45366;SDS011;31100;55.848;37.636;2023-05-23T08:47:44;8.00;;;4.18;;
45366;SDS011;31100;55.848;37.636;2023-05-23T08:50:14;8.38;;;3.78;;
45366;SDS011;31100;55.848;37.636;2023-05-23T08:52:51;8.80;;;3.08;;
45366;SDS011;31100;55.848;37.636;2023-05-23T08:55:19;7.13;;;3.22;;
45366;SDS011;31100;55.848;37.636;2023-05-23T08:57:47;8.18;;;3.67;;
45366;SDS011;31100;55.848;37.636;2023-05-23T09:00:13;7.05;;;3.75;;
45366;SDS011;31100;55.848;37.636;2023-05-23T09:02:42;6.20;;;3.17;;
45366;SDS011;31100;55.848;37.636;2023-05-23T09:05:08;6.38;;;3.15;;
45366;SDS011;31100;55.848;37.636;2023-05-23T09:07:35;6.70;;;3.03;;
45366;SDS011;31100;55.848;37.636;2023-05-23T09:10:01;5.28;;;3.03;;
45366;SDS011;31100;55.848;37.636;2023-05-23T09:12:28;6.32;;;2.90;;
45366;SDS011;31100;55.848;37.636;2023-05-23T09:14:54;6.70;;;3.05;;
45366;SDS011;31100;55.848;37.636;2023-05-23T09:17:19;7.93;;;2.75;;
45366;SDS011;31100;55.848;37.636;2023-05-23T09:19:45;6.68;;;3.08;;
45366;SDS011;31100;55.848;37.636;2023-05-23T09:22:11;5.35;;;2.85;;
45366;SDS011;31100;55.848;37.636;2023-05-23T09:24:37;6.45;;;2.50;;
45366;SDS011;31100;55.848;37.636;2023-05-23T09:27:06;8.20;;;3.80;;
45366;SDS011;31100;55.848;37.636;2023-05-23T09:29:35;6.35;;;3.00;;
45366;SDS011;31100;55.848;37.636;2023-05-23T09:32:09;5.68;;;3.40;;
45366;SDS011;31100;55.848;37.636;2023-05-23T09:37:37;7.50;;;3.55;;
45366;SDS011;31100;55.848;37.636;2023-05-23T09:40:08;6.57;;;3.65;;
45366;SDS011;31100;55.848;37.636;2023-05-23T09:42:35;6.78;;;3.60;;
45366;SDS011;31100;55.848;37.636;2023-05-23T09:45:06;11.18;;;4.68;;
45366;SDS011;31100;55.848;37.636;2023-05-23T09:47:42;6.05;;;3.58;;
45366;SDS011;31100;55.848;37.636;2023-05-23T09:50:14;7.38;;;4.10;;
45366;SDS011;31100;55.848;37.636;2023-05-23T09:52:40;7.85;;;4.45;;
45366;SDS011;31100;55.848;37.636;2023-05-23T09:55:06;11.95;;;4.20;;
45366;SDS011;31100;55.848;37.636;2023-05-23T09:57:36;6.70;;;4.25;;
45366;SDS011;31100;55.848;37.636;2023-05-23T10:00:04;7.95;;;4.63;;
45366;SDS011;31100;55.848;37.636;2023-05-23T10:05:38;7.95;;;4.55;;
45366;SDS011;31100;55.848;37.636;2023-05-23T10:08:09;11.02;;;4.82;;
45366;SDS011;31100;55.848;37.636;2023-05-23T10:13:25;8.85;;;5.00;;
45366;SDS011;31100;55.848;37.636;2023-05-23T10:15:57;9.35;;;4.90;;
45366;SDS011;31100;55.848;37.636;2023-05-23T10:18:30;10.45;;;5.80;;
45366;SDS011;31100;55.848;37.636;2023-05-23T10:23:44;11.90;;;4.93;;
45366;SDS011;31100;55.848;37.636;2023-05-23T10:26:11;13.07;;;4.65;;
45366;SDS011;31100;55.848;37.636;2023-05-23T10:28:37;7.30;;;4.30;;
45366;SDS011;31100;55.848;37.636;2023-05-23T10:31:05;9.15;;;4.43;;
45366;SDS011;31100;55.848;37.636;2023-05-23T10:33:32;10.73;;;4.90;;
45366;SDS011;31100;55.848;37.636;2023-05-23T10:36:03;8.63;;;4.65;;
45366;SDS011;31100;55.848;37.636;2023-05-23T10:38:35;9.77;;;5.40;;
45366;SDS011;31100;55.848;37.636;2023-05-23T10:41:15;8.10;;;5.57;;
45366;SDS011;31100;55.848;37.636;2023-05-23T10:46:50;7.72;;;4.80;;
45366;SDS011;31100;55.848;37.636;2023-05-23T10:49:16;7.07;;;4.72;;
45366;SDS011;31100;55.848;37.636;2023-05-23T10:51:42;7.70;;;4.40;;
45366;SDS011;31100;55.848;37.636;2023-05-23T10:54:10;5.78;;;4.22;;
45366;SDS011;31100;55.848;37.636;2023-05-23T10:56:36;5.75;;;3.97;;
45366;SDS011;31100;55.848;37.636;2023-05-23T10:59:03;6.80;;;4.30;;
45366;SDS011;31100;55.848;37.636;2023-05-23T11:01:38;7.07;;;4.88;;
45366;SDS011;31100;55.848;37.636;2023-05-23T11:04:03;7.85;;;4.82;;
45366;SDS011;31100;55.848;37.636;2023-05-23T11:14:13;7.30;;;5.13;;
45366;SDS011;31100;55.848;37.636;2023-05-23T11:16:42;9.32;;;5.40;;
45366;SDS011;31100;55.848;37.636;2023-05-23T11:19:28;8.73;;;4.70;;
45366;SDS011;31100;55.848;37.636;2023-05-23T11:21:57;9.98;;;5.15;;
45366;SDS011;31100;55.848;37.636;2023-05-23T11:27:31;12.48;;;6.35;;
45366;SDS011;31100;55.848;37.636;2023-05-23T11:32:34;8.95;;;6.18;;
45366;SDS011;31100;55.848;37.636;2023-05-23T11:35:06;10.40;;;5.35;;
45366;SDS011;31100;55.848;37.636;2023-05-23T11:37:48;8.85;;;6.00;;
45366;SDS011;31100;55.848;37.636;2023-05-23T11:40:24;8.95;;;5.93;;
45366;SDS011;31100;55.848;37.636;2023-05-23T11:45:22;10.80;;;7.15;;
45366;SDS011;31100;55.848;37.636;2023-05-23T11:47:48;11.88;;;6.57;;
45366;SDS011;31100;55.848;37.636;2023-05-23T11:50:14;9.48;;;6.72;;
45366;SDS011;31100;55.848;37.636;2023-05-23T11:52:40;10.98;;;7.20;;
45366;SDS011;31100;55.848;37.636;2023-05-23T11:55:06;8.50;;;6.65;;
45366;SDS011;31100;55.848;37.636;2023-05-23T11:57:32;8.73;;;7.18;;
45366;SDS011;31100;55.848;37.636;2023-05-23T11:59:58;9.32;;;6.90;;
45366;SDS011;31100;55.848;37.636;2023-05-23T12:02:26;9.70;;;6.68;;
45366;SDS011;31100;55.848;37.636;2023-05-23T12:04:52;11.95;;;7.47;;
45366;SDS011;31100;55.848;37.636;2023-05-23T12:07:18;9.73;;;6.43;;
45366;SDS011;31100;55.848;37.636;2023-05-23T12:09:44;9.93;;;6.32;;
45366;SDS011;31100;55.848;37.636;2023-05-23T12:12:11;9.93;;;6.90;;
45366;SDS011;31100;55.848;37.636;2023-05-23T12:14:36;10.38;;;6.30;;
45366;SDS011;31100;55.848;37.636;2023-05-23T12:17:08;9.25;;;6.03;;
45366;SDS011;31100;55.848;37.636;2023-05-23T12:19:35;8.30;;;6.07;;
45366;SDS011;31100;55.848;37.636;2023-05-23T12:22:04;10.50;;;6.65;;
45366;SDS011;31100;55.848;37.636;2023-05-23T12:24:33;8.48;;;6.40;;
45366;SDS011;31100;55.848;37.636;2023-05-23T12:26:59;9.55;;;6.10;;
45366;SDS011;31100;55.848;37.636;2023-05-23T12:29:30;10.60;;;6.90;;
45366;SDS011;31100;55.848;37.636;2023-05-23T12:32:00;9.27;;;6.35;;
45366;SDS011;31100;55.848;37.636;2023-05-23T12:34:26;7.78;;;6.20;;
45366;SDS011;31100;55.848;37.636;2023-05-23T12:36:59;11.38;;;6.47;;
45366;SDS011;31100;55.848;37.636;2023-05-23T12:39:27;10.00;;;6.18;;
45366;SDS011;31100;55.848;37.636;2023-05-23T12:41:53;10.00;;;6.20;;
45366;SDS011;31100;55.848;37.636;2023-05-23T12:44:22;10.98;;;6.80;;
45366;SDS011;31100;55.848;37.636;2023-05-23T12:46:47;11.43;;;5.80;;
45366;SDS011;31100;55.848;37.636;2023-05-23T12:49:13;10.15;;;5.95;;
45366;SDS011;31100;55.848;37.636;2023-05-23T12:51:39;8.05;;;5.95;;
45366;SDS011;31100;55.848;37.636;2023-05-23T12:54:05;7.65;;;5.45;;
45366;SDS011;31100;55.848;37.636;2023-05-23T12:56:30;8.10;;;4.97;;
45366;SDS011;31100;55.848;37.636;2023-05-23T12:58:56;7.43;;;4.43;;
45366;SDS011;31100;55.848;37.636;2023-05-23T13:01:21;8.20;;;5.28;;
45366;SDS011;31100;55.848;37.636;2023-05-23T13:03:47;6.40;;;4.00;;
45366;SDS011;31100;55.848;37.636;2023-05-23T13:06:13;7.05;;;4.53;;
45366;SDS011;31100;55.848;37.636;2023-05-23T13:08:38;7.63;;;4.47;;
45366;SDS011;31100;55.848;37.636;2023-05-23T13:11:04;8.23;;;5.10;;
45366;SDS011;31100;55.848;37.636;2023-05-23T13:13:29;10.02;;;5.57;;
45366;SDS011;31100;55.848;37.636;2023-05-23T13:15:56;9.27;;;5.78;;
45366;SDS011;31100;55.848;37.636;2023-05-23T13:18:22;7.40;;;5.75;;
45366;SDS011;31100;55.848;37.636;2023-05-23T13:20:47;9.30;;;6.20;;
45366;SDS011;31100;55.848;37.636;2023-05-23T13:23:13;9.13;;;5.70;;
45366;SDS011;31100;55.848;37.636;2023-05-23T13:25:39;7.97;;;5.18;;
45366;SDS011;31100;55.848;37.636;2023-05-23T13:28:04;9.90;;;5.38;;
45366;SDS011;31100;55.848;37.636;2023-05-23T13:30:30;13.27;;;6.28;;
45366;SDS011;31100;55.848;37.636;2023-05-23T13:32:56;11.82;;;6.72;;
45366;SDS011;31100;55.848;37.636;2023-05-23T13:35:21;13.43;;;5.78;;
45366;SDS011;31100;55.848;37.636;2023-05-23T13:37:47;11.32;;;5.38;;
45366;SDS011;31100;55.848;37.636;2023-05-23T13:40:16;9.80;;;5.07;;
45366;SDS011;31100;55.848;37.636;2023-05-23T13:42:42;9.95;;;5.22;;
45366;SDS011;31100;55.848;37.636;2023-05-23T13:45:08;10.65;;;6.05;;
45366;SDS011;31100;55.848;37.636;2023-05-23T13:47:34;8.93;;;5.82;;
45366;SDS011;31100;55.848;37.636;2023-05-23T13:50:01;8.45;;;5.18;;
45366;SDS011;31100;55.848;37.636;2023-05-23T13:52:27;9.00;;;4.70;;
45366;SDS011;31100;55.848;37.636;2023-05-23T13:54:53;8.70;;;5.00;;
45366;SDS011;31100;55.848;37.636;2023-05-23T13:57:18;8.63;;;5.15;;
45366;SDS011;31100;55.848;37.636;2023-05-23T13:59:44;8.95;;;4.82;;
45366;SDS011;31100;55.848;37.636;2023-05-23T14:02:09;8.10;;;4.35;;
45366;SDS011;31100;55.848;37.636;2023-05-23T14:04:35;6.38;;;4.35;;
45366;SDS011;31100;55.848;37.636;2023-05-23T14:07:00;8.55;;;4.28;;
45366;SDS011;31100;55.848;37.636;2023-05-23T14:09:27;8.32;;;4.60;;
45366;SDS011;31100;55.848;37.636;2023-05-23T14:11:52;9.45;;;4.53;;
45366;SDS011;31100;55.848;37.636;2023-05-23T14:14:18;12.90;;;5.00;;
45366;SDS011;31100;55.848;37.636;2023-05-23T14:16:43;9.95;;;4.97;;
45366;SDS011;31100;55.848;37.636;2023-05-23T14:19:09;7.68;;;4.38;;
45366;SDS011;31100;55.848;37.636;2023-05-23T14:21:34;11.30;;;4.70;;
45366;SDS011;31100;55.848;37.636;2023-05-23T14:24:00;8.95;;;4.43;;
45366;SDS011;31100;55.848;37.636;2023-05-23T14:26:26;9.60;;;4.32;;
45366;SDS011;31100;55.848;37.636;2023-05-23T14:28:52;7.07;;;4.00;;
45366;SDS011;31100;55.848;37.636;2023-05-23T14:31:17;8.52;;;4.68;;
45366;SDS011;31100;55.848;37.636;2023-05-23T14:33:43;10.60;;;4.22;;
45366;SDS011;31100;55.848;37.636;2023-05-23T14:36:08;13.20;;;4.80;;
45366;SDS011;31100;55.848;37.636;2023-05-23T14:38:34;8.75;;;4.35;;
45366;SDS011;31100;55.848;37.636;2023-05-23T14:40:59;8.90;;;4.50;;
45366;SDS011;31100;55.848;37.636;2023-05-23T14:43:24;9.70;;;4.90;;
45366;SDS011;31100;55.848;37.636;2023-05-23T14:45:50;10.18;;;5.25;;
45366;SDS011;31100;55.848;37.636;2023-05-23T14:48:16;9.95;;;5.40;;
45366;SDS011;31100;55.848;37.636;2023-05-23T14:50:41;10.18;;;4.85;;
45366;SDS011;31100;55.848;37.636;2023-05-23T14:53:07;8.75;;;5.43;;
45366;SDS011;31100;55.848;37.636;2023-05-23T14:55:32;10.00;;;5.28;;
45366;SDS011;31100;55.848;37.636;2023-05-23T14:57:58;9.68;;;5.57;;